sensor_id;sensor_type;location;lat;lon;timestamp;P1;durP1;ratioP1;P2;durP2;ratioP2
26020;SDS011;13798;48.858;9.092;2023-09-30T07:23:43;12.48;;;6.70;;
26020;SDS011;13798;48.858;9.092;2023-09-30T07:26:09;12.80;;;7.47;;
26020;SDS011;13798;48.858;9.092;2023-09-30T07:28:34;9.38;;;6.47;;
26020;SDS011;13798;48.858;9.092;2023-09-30T07:31:00;14.00;;;7.37;;
26020;SDS011;13798;48.858;9.092;2023-09-30T07:33:26;10.52;;;6.82;;
26020;SDS011;13798;48.858;9.092;2023-09-30T07:35:51;13.47;;;7.63;;
26020;SDS011;13798;48.858;9.092;2023-09-30T07:38:17;15.05;;;7.45;;
26020;SDS011;13798;48.858;9.092;2023-09-30T07:40:42;11.30;;;6.97;;
26020;SDS011;13798;48.858;9.092;2023-09-30T07:43:08;10.50;;;7.30;;
26020;SDS011;13798;48.858;9.092;2023-09-30T07:45:34;14.03;;;6.90;;
26020;SDS011;13798;48.858;9.092;2023-09-30T07:47:59;14.40;;;7.60;;
26020;SDS011;13798;48.858;9.092;2023-09-30T07:50:28;11.18;;;6.90;;
26020;SDS011;13798;48.858;9.092;2023-09-30T07:52:53;13.50;;;7.53;;
26020;SDS011;13798;48.858;9.092;2023-09-30T07:55:19;12.82;;;7.05;;
26020;SDS011;13798;48.858;9.092;2023-09-30T07:57:44;13.10;;;7.20;;
26020;SDS011;13798;48.858;9.092;2023-09-30T08:00:11;11.65;;;6.47;;
26020;SDS011;13798;48.858;9.092;2023-09-30T08:02:40;14.30;;;7.47;;
26020;SDS011;13798;48.858;9.092;2023-09-30T08:05:09;11.15;;;6.80;;
26020;SDS011;13798;48.858;9.092;2023-09-30T08:07:35;11.75;;;6.70;;
26020;SDS011;13798;48.858;9.092;2023-09-30T08:10:02;15.18;;;6.85;;
26020;SDS011;13798;48.858;9.092;2023-09-30T08:12:30;10.70;;;5.80;;
26020;SDS011;13798;48.858;9.092;2023-09-30T08:14:55;10.90;;;6.10;;
26020;SDS011;13798;48.858;9.092;2023-09-30T08:17:21;10.95;;;6.05;;
26020;SDS011;13798;48.858;9.092;2023-09-30T08:19:46;11.87;;;7.20;;
26020;SDS011;13798;48.858;9.092;2023-09-30T08:22:12;11.23;;;6.63;;
26020;SDS011;13798;48.858;9.092;2023-09-30T08:24:38;10.60;;;6.88;;
26020;SDS011;13798;48.858;9.092;2023-09-30T08:27:04;10.87;;;6.70;;
26020;SDS011;13798;48.858;9.092;2023-09-30T08:29:33;11.47;;;6.40;;
26020;SDS011;13798;48.858;9.092;2023-09-30T08:32:01;10.90;;;6.68;;
26020;SDS011;13798;48.858;9.092;2023-09-30T08:34:27;10.85;;;6.22;;
26020;SDS011;13798;48.858;9.092;2023-09-30T08:36:53;17.58;;;6.97;;
26020;SDS011;13798;48.858;9.092;2023-09-30T08:39:19;11.27;;;5.85;;
26020;SDS011;13798;48.858;9.092;2023-09-30T08:41:44;13.40;;;6.67;;
26020;SDS011;13798;48.858;9.092;2023-09-30T08:44:11;12.05;;;6.55;;
26020;SDS011;13798;48.858;9.092;2023-09-30T08:46:37;10.07;;;6.25;;
26020;SDS011;13798;48.858;9.092;2023-09-30T08:49:04;11.02;;;5.97;;
26020;SDS011;13798;48.858;9.092;2023-09-30T08:51:35;14.27;;;6.73;;
26020;SDS011;13798;48.858;9.092;2023-09-30T08:54:01;12.77;;;6.50;;
26020;SDS011;13798;48.858;9.092;2023-09-30T08:56:29;12.00;;;6.00;;
26020;SDS011;13798;48.858;9.092;2023-09-30T08:58:58;10.65;;;5.88;;
26020;SDS011;13798;48.858;9.092;2023-09-30T09:01:25;12.65;;;6.13;;
26020;SDS011;13798;48.858;9.092;2023-09-30T09:03:52;9.20;;;6.15;;
26020;SDS011;13798;48.858;9.092;2023-09-30T09:06:20;11.03;;;6.63;;
26020;SDS011;13798;48.858;9.092;2023-09-30T09:08:46;12.77;;;7.20;;
26020;SDS011;13798;48.858;9.092;2023-09-30T09:11:12;12.20;;;6.22;;
26020;SDS011;13798;48.858;9.092;2023-09-30T09:13:44;10.75;;;5.78;;
26020;SDS011;13798;48.858;9.092;2023-09-30T09:16:14;10.65;;;6.70;;
26020;SDS011;13798;48.858;9.092;2023-09-30T09:18:40;10.77;;;5.80;;
26020;SDS011;13798;48.858;9.092;2023-09-30T09:21:12;11.45;;;6.72;;
26020;SDS011;13798;48.858;9.092;2023-09-30T09:23:43;12.20;;;6.35;;
26020;SDS011;13798;48.858;9.092;2023-09-30T09:26:11;11.95;;;6.40;;
26020;SDS011;13798;48.858;9.092;2023-09-30T09:29:03;10.27;;;5.85;;
26020;SDS011;13798;48.858;9.092;2023-09-30T09:31:32;9.13;;;5.50;;
26020;SDS011;13798;48.858;9.092;2023-09-30T09:33:59;9.73;;;6.00;;
26020;SDS011;13798;48.858;9.092;2023-09-30T09:36:38;10.52;;;5.97;;
26020;SDS011;13798;48.858;9.092;2023-09-30T09:39:06;11.95;;;6.13;;
26020;SDS011;13798;48.858;9.092;2023-09-30T09:41:32;8.38;;;6.00;;
26020;SDS011;13798;48.858;9.092;2023-09-30T09:43:58;7.47;;;5.78;;
26020;SDS011;13798;48.858;9.092;2023-09-30T09:46:24;10.50;;;5.70;;
26020;SDS011;13798;48.858;9.092;2023-09-30T09:48:52;10.95;;;5.78;;
26020;SDS011;13798;48.858;9.092;2023-09-30T09:51:18;13.43;;;6.10;;
26020;SDS011;13798;48.858;9.092;2023-09-30T09:53:46;10.15;;;5.50;;
26020;SDS011;13798;48.858;9.092;2023-09-30T09:56:14;11.05;;;5.68;;
26020;SDS011;13798;48.858;9.092;2023-09-30T09:58:42;10.52;;;5.53;;
26020;SDS011;13798;48.858;9.092;2023-09-30T10:01:08;8.32;;;5.07;;
26020;SDS011;13798;48.858;9.092;2023-09-30T10:03:35;9.60;;;5.23;;
26020;SDS011;13798;48.858;9.092;2023-09-30T10:06:01;7.85;;;5.45;;
26020;SDS011;13798;48.858;9.092;2023-09-30T10:08:29;10.00;;;5.40;;
26020;SDS011;13798;48.858;9.092;2023-09-30T10:11:02;9.65;;;5.72;;
26020;SDS011;13798;48.858;9.092;2023-09-30T10:19:09;8.57;;;5.50;;
26020;SDS011;13798;48.858;9.092;2023-09-30T10:21:35;8.88;;;4.88;;
26020;SDS011;13798;48.858;9.092;2023-09-30T10:35:18;7.82;;;5.70;;
26020;SDS011;13798;48.858;9.092;2023-09-30T10:37:45;10.15;;;6.00;;
26020;SDS011;13798;48.858;9.092;2023-09-30T10:43:06;8.98;;;5.80;;
26020;SDS011;13798;48.858;9.092;2023-09-30T10:45:55;9.30;;;5.78;;
26020;SDS011;13798;48.858;9.092;2023-09-30T10:50:50;8.95;;;5.97;;
26020;SDS011;13798;48.858;9.092;2023-09-30T10:53:18;8.27;;;5.53;;
26020;SDS011;13798;48.858;9.092;2023-09-30T10:55:47;8.55;;;5.88;;
26020;SDS011;13798;48.858;9.092;2023-09-30T10:58:20;10.18;;;6.15;;
26020;SDS011;13798;48.858;9.092;2023-09-30T11:00:53;7.63;;;5.55;;
26020;SDS011;13798;48.858;9.092;2023-09-30T11:03:22;14.90;;;6.25;;
26020;SDS011;13798;48.858;9.092;2023-09-30T11:05:48;10.27;;;5.70;;
26020;SDS011;13798;48.858;9.092;2023-09-30T11:08:14;11.50;;;6.32;;
26020;SDS011;13798;48.858;9.092;2023-09-30T11:10:49;10.57;;;5.82;;
26020;SDS011;13798;48.858;9.092;2023-09-30T11:13:15;10.80;;;5.97;;
26020;SDS011;13798;48.858;9.092;2023-09-30T11:15:41;7.63;;;5.90;;
26020;SDS011;13798;48.858;9.092;2023-09-30T11:18:14;10.15;;;6.07;;
26020;SDS011;13798;48.858;9.092;2023-09-30T11:20:41;11.35;;;6.03;;
26020;SDS011;13798;48.858;9.092;2023-09-30T11:23:09;9.97;;;5.87;;
26020;SDS011;13798;48.858;9.092;2023-09-30T11:25:36;10.57;;;6.40;;
26020;SDS011;13798;48.858;9.092;2023-09-30T11:28:15;11.00;;;6.37;;
26020;SDS011;13798;48.858;9.092;2023-09-30T11:30:53;9.13;;;6.03;;
26020;SDS011;13798;48.858;9.092;2023-09-30T11:33:20;10.88;;;6.38;;
26020;SDS011;13798;48.858;9.092;2023-09-30T11:38:30;9.15;;;6.05;;
26020;SDS011;13798;48.858;9.092;2023-09-30T11:41:03;8.53;;;5.97;;
26020;SDS011;13798;48.858;9.092;2023-09-30T11:43:31;8.82;;;5.82;;
26020;SDS011;13798;48.858;9.092;2023-09-30T11:46:08;10.23;;;6.03;;
26020;SDS011;13798;48.858;9.092;2023-09-30T11:48:36;9.25;;;5.93;;
26020;SDS011;13798;48.858;9.092;2023-09-30T11:51:21;8.47;;;5.87;;
26020;SDS011;13798;48.858;9.092;2023-09-30T11:53:49;11.70;;;7.47;;
26020;SDS011;13798;48.858;9.092;2023-09-30T11:56:15;8.90;;;5.73;;
26020;SDS011;13798;48.858;9.092;2023-09-30T11:58:41;8.88;;;5.82;;
26020;SDS011;13798;48.858;9.092;2023-09-30T12:01:07;9.55;;;5.78;;
26020;SDS011;13798;48.858;9.092;2023-09-30T12:03:33;11.13;;;6.07;;
26020;SDS011;13798;48.858;9.092;2023-09-30T12:06:04;10.80;;;6.20;;
26020;SDS011;13798;48.858;9.092;2023-09-30T12:08:30;8.40;;;5.70;;
26020;SDS011;13798;48.858;9.092;2023-09-30T12:10:57;9.75;;;6.50;;
26020;SDS011;13798;48.858;9.092;2023-09-30T12:13:24;11.07;;;6.30;;
26020;SDS011;13798;48.858;9.092;2023-09-30T12:15:50;11.80;;;6.83;;
26020;SDS011;13798;48.858;9.092;2023-09-30T12:18:17;10.43;;;6.82;;
26020;SDS011;13798;48.858;9.092;2023-09-30T12:20:48;10.43;;;6.78;;
26020;SDS011;13798;48.858;9.092;2023-09-30T12:23:14;10.97;;;6.97;;
26020;SDS011;13798;48.858;9.092;2023-09-30T12:25:46;11.68;;;6.75;;
26020;SDS011;13798;48.858;9.092;2023-09-30T12:28:12;10.95;;;6.82;;
26020;SDS011;13798;48.858;9.092;2023-09-30T12:30:40;10.10;;;6.68;;
26020;SDS011;13798;48.858;9.092;2023-09-30T12:33:06;13.00;;;6.63;;
26020;SDS011;13798;48.858;9.092;2023-09-30T12:35:32;10.60;;;7.30;;
26020;SDS011;13798;48.858;9.092;2023-09-30T12:37:58;12.20;;;7.43;;
26020;SDS011;13798;48.858;9.092;2023-09-30T12:40:24;11.50;;;7.47;;
26020;SDS011;13798;48.858;9.092;2023-09-30T12:42:49;9.80;;;6.20;;
26020;SDS011;13798;48.858;9.092;2023-09-30T12:45:15;11.13;;;7.10;;
26020;SDS011;13798;48.858;9.092;2023-09-30T12:47:42;10.48;;;6.22;;
26020;SDS011;13798;48.858;9.092;2023-09-30T12:50:07;10.55;;;6.50;;
26020;SDS011;13798;48.858;9.092;2023-09-30T12:52:36;10.82;;;6.78;;
26020;SDS011;13798;48.858;9.092;2023-09-30T12:55:03;11.55;;;6.80;;
26020;SDS011;13798;48.858;9.092;2023-09-30T12:57:29;10.95;;;7.03;;
26020;SDS011;13798;48.858;9.092;2023-09-30T12:59:55;11.30;;;6.70;;
26020;SDS011;13798;48.858;9.092;2023-09-30T13:02:21;10.52;;;6.40;;
26020;SDS011;13798;48.858;9.092;2023-09-30T13:04:47;12.53;;;6.77;;
26020;SDS011;13798;48.858;9.092;2023-09-30T13:07:13;10.27;;;6.78;;
26020;SDS011;13798;48.858;9.092;2023-09-30T13:09:39;10.52;;;6.40;;
26020;SDS011;13798;48.858;9.092;2023-09-30T13:12:05;14.50;;;7.45;;
26020;SDS011;13798;48.858;9.092;2023-09-30T13:14:31;9.90;;;6.82;;
26020;SDS011;13798;48.858;9.092;2023-09-30T13:16:57;10.13;;;6.50;;
26020;SDS011;13798;48.858;9.092;2023-09-30T13:19:22;10.77;;;6.87;;
26020;SDS011;13798;48.858;9.092;2023-09-30T13:21:48;10.63;;;6.60;;
26020;SDS011;13798;48.858;9.092;2023-09-30T13:24:15;12.00;;;6.97;;
26020;SDS011;13798;48.858;9.092;2023-09-30T13:26:40;11.93;;;6.63;;
26020;SDS011;13798;48.858;9.092;2023-09-30T13:29:06;9.93;;;6.90;;
26020;SDS011;13798;48.858;9.092;2023-09-30T13:31:35;10.90;;;7.32;;
26020;SDS011;13798;48.858;9.092;2023-09-30T13:34:04;11.85;;;7.10;;
26020;SDS011;13798;48.858;9.092;2023-09-30T13:36:30;10.52;;;6.85;;
26020;SDS011;13798;48.858;9.092;2023-09-30T13:38:56;10.65;;;6.97;;
26020;SDS011;13798;48.858;9.092;2023-09-30T13:41:21;9.77;;;6.70;;
26020;SDS011;13798;48.858;9.092;2023-09-30T13:43:47;10.13;;;7.00;;
26020;SDS011;13798;48.858;9.092;2023-09-30T13:46:12;9.73;;;6.70;;
26020;SDS011;13798;48.858;9.092;2023-09-30T13:48:38;8.83;;;6.53;;
26020;SDS011;13798;48.858;9.092;2023-09-30T13:51:07;10.88;;;7.38;;
26020;SDS011;13798;48.858;9.092;2023-09-30T13:53:34;11.27;;;7.10;;
26020;SDS011;13798;48.858;9.092;2023-09-30T13:56:00;11.10;;;6.65;;
26020;SDS011;13798;48.858;9.092;2023-09-30T13:58:26;11.63;;;7.18;;
26020;SDS011;13798;48.858;9.092;2023-09-30T14:00:51;8.10;;;6.15;;
26020;SDS011;13798;48.858;9.092;2023-09-30T14:03:17;11.27;;;6.97;;
26020;SDS011;13798;48.858;9.092;2023-09-30T14:05:44;10.13;;;6.47;;
26020;SDS011;13798;48.858;9.092;2023-09-30T14:08:10;11.13;;;6.20;;
26020;SDS011;13798;48.858;9.092;2023-09-30T14:10:36;10.32;;;6.35;;
26020;SDS011;13798;48.858;9.092;2023-09-30T14:13:02;8.97;;;6.23;;
26020;SDS011;13798;48.858;9.092;2023-09-30T14:15:31;9.73;;;6.20;;
26020;SDS011;13798;48.858;9.092;2023-09-30T14:17:57;10.40;;;6.30;;
26020;SDS011;13798;48.858;9.092;2023-09-30T14:20:27;13.65;;;6.28;;
26020;SDS011;13798;48.858;9.092;2023-09-30T14:22:52;10.43;;;6.40;;
26020;SDS011;13798;48.858;9.092;2023-09-30T14:25:20;9.57;;;6.82;;
26020;SDS011;13798;48.858;9.092;2023-09-30T14:27:46;9.88;;;6.40;;
26020;SDS011;13798;48.858;9.092;2023-09-30T14:30:12;11.10;;;6.77;;
26020;SDS011;13798;48.858;9.092;2023-09-30T14:32:38;10.57;;;6.82;;
26020;SDS011;13798;48.858;9.092;2023-09-30T14:35:05;11.07;;;6.63;;
26020;SDS011;13798;48.858;9.092;2023-09-30T14:37:31;12.05;;;7.05;;
26020;SDS011;13798;48.858;9.092;2023-09-30T14:39:56;12.10;;;7.20;;
26020;SDS011;13798;48.858;9.092;2023-09-30T14:42:22;10.30;;;6.18;;
26020;SDS011;13798;48.858;9.092;2023-09-30T14:44:48;10.57;;;6.68;;
26020;SDS011;13798;48.858;9.092;2023-09-30T14:47:13;9.67;;;7.00;;
26020;SDS011;13798;48.858;9.092;2023-09-30T14:49:40;10.65;;;7.30;;
26020;SDS011;13798;48.858;9.092;2023-09-30T14:52:05;10.00;;;6.35;;
26020;SDS011;13798;48.858;9.092;2023-09-30T14:54:31;11.90;;;6.60;;
26020;SDS011;13798;48.858;9.092;2023-09-30T14:56:57;11.33;;;6.90;;
26020;SDS011;13798;48.858;9.092;2023-09-30T14:59:23;10.23;;;6.88;;
26020;SDS011;13798;48.858;9.092;2023-09-30T15:01:49;10.75;;;6.50;;
26020;SDS011;13798;48.858;9.092;2023-09-30T15:04:14;11.02;;;6.78;;
26020;SDS011;13798;48.858;9.092;2023-09-30T15:06:40;13.07;;;6.70;;
26020;SDS011;13798;48.858;9.092;2023-09-30T15:09:07;10.38;;;6.82;;
26020;SDS011;13798;48.858;9.092;2023-09-30T15:11:35;10.93;;;6.95;;
26020;SDS011;13798;48.858;9.092;2023-09-30T15:14:00;11.33;;;6.47;;
26020;SDS011;13798;48.858;9.092;2023-09-30T15:16:26;11.90;;;7.30;;
26020;SDS011;13798;48.858;9.092;2023-09-30T15:18:51;9.50;;;7.07;;
26020;SDS011;13798;48.858;9.092;2023-09-30T15:21:17;12.60;;;6.97;;
26020;SDS011;13798;48.858;9.092;2023-09-30T15:23:44;10.30;;;6.93;;
26020;SDS011;13798;48.858;9.092;2023-09-30T15:26:09;10.17;;;7.03;;
26020;SDS011;13798;48.858;9.092;2023-09-30T15:28:35;10.00;;;6.75;;
26020;SDS011;13798;48.858;9.092;2023-09-30T15:31:02;9.57;;;6.60;;
26020;SDS011;13798;48.858;9.092;2023-09-30T15:33:28;10.27;;;6.57;;
26020;SDS011;13798;48.858;9.092;2023-09-30T15:35:54;12.98;;;7.43;;
26020;SDS011;13798;48.858;9.092;2023-09-30T15:38:19;12.65;;;7.03;;
26020;SDS011;13798;48.858;9.092;2023-09-30T15:40:53;11.68;;;7.40;;
26020;SDS011;13798;48.858;9.092;2023-09-30T15:43:21;12.55;;;6.88;;
26020;SDS011;13798;48.858;9.092;2023-09-30T15:45:47;11.52;;;7.53;;
26020;SDS011;13798;48.858;9.092;2023-09-30T15:48:13;11.60;;;7.05;;
26020;SDS011;13798;48.858;9.092;2023-09-30T15:50:39;12.17;;;6.70;;
26020;SDS011;13798;48.858;9.092;2023-09-30T15:53:04;10.70;;;6.90;;
26020;SDS011;13798;48.858;9.092;2023-09-30T15:55:31;12.63;;;7.70;;
26020;SDS011;13798;48.858;9.092;2023-09-30T15:57:57;10.70;;;6.82;;
26020;SDS011;13798;48.858;9.092;2023-09-30T16:00:22;14.88;;;7.80;;
26020;SDS011;13798;48.858;9.092;2023-09-30T16:02:48;13.57;;;7.40;;
26020;SDS011;13798;48.858;9.092;2023-09-30T16:05:13;10.70;;;7.30;;
26020;SDS011;13798;48.858;9.092;2023-09-30T16:07:42;12.10;;;7.22;;
26020;SDS011;13798;48.858;9.092;2023-09-30T16:10:09;13.02;;;6.85;;
26020;SDS011;13798;48.858;9.092;2023-09-30T16:12:36;10.45;;;6.93;;
26020;SDS011;13798;48.858;9.092;2023-09-30T16:15:04;11.68;;;7.28;;
26020;SDS011;13798;48.858;9.092;2023-09-30T16:17:31;14.13;;;7.13;;
26020;SDS011;13798;48.858;9.092;2023-09-30T16:19:56;12.63;;;7.28;;
26020;SDS011;13798;48.858;9.092;2023-09-30T16:22:22;13.93;;;7.23;;
26020;SDS011;13798;48.858;9.092;2023-09-30T16:24:48;11.73;;;7.37;;
26020;SDS011;13798;48.858;9.092;2023-09-30T16:27:13;12.70;;;7.88;;
26020;SDS011;13798;48.858;9.092;2023-09-30T16:29:39;13.87;;;7.97;;
26020;SDS011;13798;48.858;9.092;2023-09-30T16:32:04;14.40;;;7.80;;
26020;SDS011;13798;48.858;9.092;2023-09-30T16:34:30;15.70;;;8.40;;
26020;SDS011;13798;48.858;9.092;2023-09-30T16:36:56;17.30;;;8.93;;
26020;SDS011;13798;48.858;9.092;2023-09-30T16:39:22;11.60;;;8.07;;
26020;SDS011;13798;48.858;9.092;2023-09-30T16:41:47;15.97;;;8.63;;
26020;SDS011;13798;48.858;9.092;2023-09-30T16:44:13;13.98;;;8.00;;
26020;SDS011;13798;48.858;9.092;2023-09-30T16:46:38;14.07;;;7.93;;
26020;SDS011;13798;48.858;9.092;2023-09-30T16:49:04;14.07;;;7.77;;
26020;SDS011;13798;48.858;9.092;2023-09-30T16:51:29;12.50;;;7.67;;
26020;SDS011;13798;48.858;9.092;2023-09-30T16:53:55;14.38;;;8.15;;
26020;SDS011;13798;48.858;9.092;2023-09-30T16:56:20;13.73;;;7.70;;
26020;SDS011;13798;48.858;9.092;2023-09-30T16:58:46;14.67;;;7.77;;
26020;SDS011;13798;48.858;9.092;2023-09-30T17:01:11;12.07;;;7.57;;
26020;SDS011;13798;48.858;9.092;2023-09-30T17:03:38;12.55;;;7.85;;
26020;SDS011;13798;48.858;9.092;2023-09-30T17:06:04;12.82;;;8.23;;
26020;SDS011;13798;48.858;9.092;2023-09-30T17:08:30;12.85;;;8.70;;
26020;SDS011;13798;48.858;9.092;2023-09-30T17:10:56;15.67;;;9.33;;
26020;SDS011;13798;48.858;9.092;2023-09-30T17:13:21;17.33;;;10.63;;
26020;SDS011;13798;48.858;9.092;2023-09-30T17:15:47;17.13;;;9.65;;
26020;SDS011;13798;48.858;9.092;2023-09-30T17:18:13;13.35;;;8.68;;
26020;SDS011;13798;48.858;9.092;2023-09-30T17:20:42;13.60;;;8.27;;
26020;SDS011;13798;48.858;9.092;2023-09-30T17:23:10;13.17;;;7.70;;
26020;SDS011;13798;48.858;9.092;2023-09-30T17:25:37;16.30;;;8.20;;
26020;SDS011;13798;48.858;9.092;2023-09-30T17:28:02;17.42;;;8.70;;
26020;SDS011;13798;48.858;9.092;2023-09-30T17:30:28;18.67;;;7.82;;
26020;SDS011;13798;48.858;9.092;2023-09-30T17:32:55;14.82;;;7.75;;
26020;SDS011;13798;48.858;9.092;2023-09-30T17:35:25;12.05;;;7.50;;
26020;SDS011;13798;48.858;9.092;2023-09-30T17:37:51;13.47;;;7.83;;
26020;SDS011;13798;48.858;9.092;2023-09-30T17:40:17;13.10;;;7.72;;
26020;SDS011;13798;48.858;9.092;2023-09-30T17:42:43;13.27;;;8.18;;
26020;SDS011;13798;48.858;9.092;2023-09-30T17:45:09;15.50;;;8.87;;
26020;SDS011;13798;48.858;9.092;2023-09-30T17:47:37;17.40;;;9.45;;
26020;SDS011;13798;48.858;9.092;2023-09-30T17:50:05;15.45;;;9.13;;
26020;SDS011;13798;48.858;9.092;2023-09-30T17:52:34;15.60;;;8.95;;
26020;SDS011;13798;48.858;9.092;2023-09-30T17:55:00;17.00;;;9.43;;
26020;SDS011;13798;48.858;9.092;2023-09-30T17:57:25;17.03;;;10.07;;
26020;SDS011;13798;48.858;9.092;2023-09-30T17:59:51;16.45;;;9.10;;
26020;SDS011;13798;48.858;9.092;2023-09-30T18:02:17;16.25;;;9.60;;
26020;SDS011;13798;48.858;9.092;2023-09-30T18:04:42;19.52;;;10.60;;
26020;SDS011;13798;48.858;9.092;2023-09-30T18:07:08;19.37;;;10.30;;
26020;SDS011;13798;48.858;9.092;2023-09-30T18:09:34;16.88;;;9.68;;
26020;SDS011;13798;48.858;9.092;2023-09-30T18:12:00;17.52;;;9.30;;
26020;SDS011;13798;48.858;9.092;2023-09-30T18:14:26;13.87;;;8.70;;
26020;SDS011;13798;48.858;9.092;2023-09-30T18:16:52;16.33;;;9.32;;
26020;SDS011;13798;48.858;9.092;2023-09-30T18:19:18;20.47;;;10.07;;
26020;SDS011;13798;48.858;9.092;2023-09-30T18:21:45;18.80;;;9.48;;
26020;SDS011;13798;48.858;9.092;2023-09-30T18:24:11;14.15;;;8.52;;
26020;SDS011;13798;48.858;9.092;2023-09-30T18:26:37;15.70;;;9.60;;
26020;SDS011;13798;48.858;9.092;2023-09-30T18:29:03;18.23;;;9.23;;
26020;SDS011;13798;48.858;9.092;2023-09-30T18:31:31;18.33;;;10.13;;
26020;SDS011;13798;48.858;9.092;2023-09-30T18:33:56;16.97;;;10.10;;
26020;SDS011;13798;48.858;9.092;2023-09-30T18:36:25;22.53;;;10.37;;
26020;SDS011;13798;48.858;9.092;2023-09-30T18:38:52;17.48;;;10.00;;
26020;SDS011;13798;48.858;9.092;2023-09-30T18:41:18;17.83;;;10.13;;
26020;SDS011;13798;48.858;9.092;2023-09-30T18:43:44;19.52;;;9.98;;
26020;SDS011;13798;48.858;9.092;2023-09-30T18:46:11;17.88;;;9.93;;
26020;SDS011;13798;48.858;9.092;2023-09-30T18:48:39;18.33;;;9.48;;
26020;SDS011;13798;48.858;9.092;2023-09-30T18:51:06;19.25;;;9.52;;
26020;SDS011;13798;48.858;9.092;2023-09-30T18:53:38;16.33;;;8.57;;
26020;SDS011;13798;48.858;9.092;2023-09-30T18:56:05;21.88;;;9.75;;
26020;SDS011;13798;48.858;9.092;2023-09-30T18:58:31;21.10;;;10.37;;
26020;SDS011;13798;48.858;9.092;2023-09-30T19:00:57;19.65;;;10.40;;
26020;SDS011;13798;48.858;9.092;2023-09-30T19:03:23;17.90;;;9.43;;
26020;SDS011;13798;48.858;9.092;2023-09-30T19:05:50;15.43;;;9.23;;
26020;SDS011;13798;48.858;9.092;2023-09-30T19:08:19;21.95;;;10.68;;
26020;SDS011;13798;48.858;9.092;2023-09-30T19:10:47;16.63;;;9.57;;
26020;SDS011;13798;48.858;9.092;2023-09-30T19:13:13;18.67;;;10.30;;
26020;SDS011;13798;48.858;9.092;2023-09-30T19:15:38;17.02;;;9.70;;
26020;SDS011;13798;48.858;9.092;2023-09-30T19:18:04;19.33;;;9.60;;
26020;SDS011;13798;48.858;9.092;2023-09-30T19:20:30;19.67;;;9.55;;
26020;SDS011;13798;48.858;9.092;2023-09-30T19:22:56;18.42;;;9.75;;
26020;SDS011;13798;48.858;9.092;2023-09-30T19:25:22;20.50;;;10.48;;
26020;SDS011;13798;48.858;9.092;2023-09-30T19:27:48;22.15;;;10.25;;
26020;SDS011;13798;48.858;9.092;2023-09-30T19:30:17;18.00;;;10.13;;
26020;SDS011;13798;48.858;9.092;2023-09-30T19:32:43;19.35;;;11.23;;
26020;SDS011;13798;48.858;9.092;2023-09-30T19:35:08;22.23;;;11.63;;
26020;SDS011;13798;48.858;9.092;2023-09-30T19:37:34;17.90;;;10.57;;
26020;SDS011;13798;48.858;9.092;2023-09-30T19:40:01;19.33;;;11.05;;
26020;SDS011;13798;48.858;9.092;2023-09-30T19:42:28;18.95;;;10.48;;
26020;SDS011;13798;48.858;9.092;2023-09-30T19:44:54;19.83;;;10.55;;
26020;SDS011;13798;48.858;9.092;2023-09-30T19:47:19;21.50;;;10.80;;
26020;SDS011;13798;48.858;9.092;2023-09-30T19:49:45;17.35;;;11.02;;
26020;SDS011;13798;48.858;9.092;2023-09-30T19:52:12;16.70;;;10.77;;
26020;SDS011;13798;48.858;9.092;2023-09-30T19:54:37;18.90;;;10.73;;
26020;SDS011;13798;48.858;9.092;2023-09-30T19:57:03;18.52;;;9.75;;
26020;SDS011;13798;48.858;9.092;2023-09-30T19:59:30;17.23;;;10.55;;
26020;SDS011;13798;48.858;9.092;2023-09-30T20:01:56;19.17;;;10.80;;
26020;SDS011;13798;48.858;9.092;2023-09-30T20:04:22;18.40;;;11.00;;
26020;SDS011;13798;48.858;9.092;2023-09-30T20:06:48;17.00;;;10.80;;
26020;SDS011;13798;48.858;9.092;2023-09-30T20:09:20;23.58;;;11.93;;
26020;SDS011;13798;48.858;9.092;2023-09-30T20:11:49;18.33;;;11.18;;
26020;SDS011;13798;48.858;9.092;2023-09-30T20:14:14;20.73;;;11.80;;
26020;SDS011;13798;48.858;9.092;2023-09-30T20:16:40;19.80;;;10.88;;
26020;SDS011;13798;48.858;9.092;2023-09-30T20:19:08;20.40;;;11.45;;
26020;SDS011;13798;48.858;9.092;2023-09-30T20:21:33;17.27;;;11.60;;
26020;SDS011;13798;48.858;9.092;2023-09-30T20:24:01;18.27;;;10.55;;
26020;SDS011;13798;48.858;9.092;2023-09-30T20:26:30;18.70;;;11.80;;
26020;SDS011;13798;48.858;9.092;2023-09-30T20:29:00;20.60;;;11.65;;
26020;SDS011;13798;48.858;9.092;2023-09-30T20:31:32;15.95;;;11.10;;
26020;SDS011;13798;48.858;9.092;2023-09-30T20:34:00;20.58;;;12.55;;
26020;SDS011;13798;48.858;9.092;2023-09-30T20:36:26;17.52;;;11.10;;
26020;SDS011;13798;48.858;9.092;2023-09-30T20:38:52;19.77;;;11.97;;
26020;SDS011;13798;48.858;9.092;2023-09-30T20:41:17;15.73;;;11.05;;
26020;SDS011;13798;48.858;9.092;2023-09-30T20:43:44;18.05;;;11.27;;
26020;SDS011;13798;48.858;9.092;2023-09-30T20:46:10;18.10;;;11.52;;
